Time;durP1;ratioP1;P1;durP2;ratioP2;P2;SDS_P1;SDS_P2;PMS_P1;PMS_P2;Temp;Humidity;BMP_temperature;BMP_pressure;BME280_temperature;BME280_humidity;BME280_pressure;Samples;Min_cycle;Max_cycle;Signal;HPM_P1;HPM_P2
2022/02/15 00:23:34;;;;;;;23.53;9.13;;;;;;;;;;6095016;22;4575207;-88
2022/02/15 00:26:40;;;;;;;24.03;8.77;;;;;;;;;;6279558;22;20162;-87
2022/02/15 01:05:06;;;;;;;20.40;8.60;;;;;;;;;;6225553;22;20267;-89
2022/02/15 01:08:14;;;;;;;20.50;9.03;;;;;;;;;;6268294;22;20602;-89
2022/02/15 01:14:26;;;;;;;19.70;9.20;;;;;;;;;;6250510;22;20159;-89
2022/02/15 01:17:32;;;;;;;29.67;10.07;;;;;;;;;;6244722;23;20158;-88
2022/02/15 01:20:39;;;;;;;34.53;11.60;;;;;;;;;;6241446;23;20499;-89
2022/02/15 01:23:44;;;;;;;26.20;11.23;;;;;;;;;;6242258;23;20684;-90
2022/02/15 01:26:49;;;;;;;26.53;11.10;;;;;;;;;;6241531;23;20426;-90
2022/02/15 01:29:54;;;;;;;18.80;9.27;;;;;;;;;;6242932;22;20217;-90
2022/02/15 01:32:58;;;;;;;23.47;9.60;;;;;;;;;;6242719;22;20193;-89
2022/02/15 01:36:05;;;;;;;21.60;9.27;;;;;;;;;;6241113;23;20166;-90
2022/02/15 01:39:10;;;;;;;24.07;9.03;;;;;;;;;;6241684;23;20166;-89
2022/02/15 01:42:18;;;;;;;18.63;8.87;;;;;;;;;;6240750;22;20175;-89
2022/02/15 01:45:24;;;;;;;21.67;8.90;;;;;;;;;;6243050;23;20189;-89
2022/02/15 01:48:29;;;;;;;26.50;9.57;;;;;;;;;;6243376;23;20186;-90
2022/02/15 01:51:36;;;;;;;27.03;9.83;;;;;;;;;;6243477;23;20189;-88
2022/02/15 01:54:41;;;;;;;21.53;9.23;;;;;;;;;;6243173;22;20222;-87
2022/02/15 01:57:47;;;;;;;23.30;10.13;;;;;;;;;;6245663;23;20235;-90
2022/02/15 02:01:00;;;;;;;26.60;11.33;;;;;;;;;;6240012;22;20166;-90
2022/02/15 02:07:36;;;;;;;23.53;10.60;;;;;;;;;;6240426;23;20190;-90
2022/02/15 02:10:42;;;;;;;24.60;10.47;;;;;;;;;;6241360;23;20182;-90
2022/02/15 02:13:55;;;;;;;22.73;10.17;;;;;;;;;;6239416;23;20167;-91
2022/02/15 02:17:02;;;;;;;26.30;11.03;;;;;;;;;;6239975;22;20178;-89
2022/02/15 02:20:10;;;;;;;26.20;11.83;;;;;;;;;;6240295;23;20159;-90
2022/02/15 02:23:18;;;;;;;24.93;10.53;;;;;;;;;;6238286;23;20165;-89
2022/02/15 02:26:24;;;;;;;22.57;10.40;;;;;;;;;;6238524;22;20166;-89
2022/02/15 02:29:29;;;;;;;24.83;10.53;;;;;;;;;;6240111;23;20166;-89
2022/02/15 02:32:35;;;;;;;24.07;10.77;;;;;;;;;;6239507;23;20642;-89
2022/02/15 02:35:40;;;;;;;24.77;10.63;;;;;;;;;;6239726;23;20208;-90
2022/02/15 02:38:46;;;;;;;24.97;10.90;;;;;;;;;;6239325;23;20170;-89
2022/02/15 02:41:51;;;;;;;25.40;11.17;;;;;;;;;;6240914;22;20170;-91
2022/02/15 02:44:58;;;;;;;32.83;11.80;;;;;;;;;;6239191;22;20167;-89
2022/02/15 02:48:03;;;;;;;23.47;11.47;;;;;;;;;;6241229;23;20175;-89
2022/02/15 02:51:08;;;;;;;22.73;10.67;;;;;;;;;;6240914;23;20174;-89
2022/02/15 02:54:15;;;;;;;25.33;10.37;;;;;;;;;;6239890;23;20170;-89
2022/02/15 02:57:36;;;;;;;25.30;11.23;;;;;;;;;;6239145;22;20150;-90
2022/02/15 03:00:41;;;;;;;27.00;10.87;;;;;;;;;;6238737;23;20245;-90
2022/02/15 03:04:09;;;;;;;31.20;12.30;;;;;;;;;;6238323;22;20174;-90
2022/02/15 03:07:16;;;;;;;35.27;13.67;;;;;;;;;;6238014;22;20490;-90
2022/02/15 03:10:22;;;;;;;32.30;13.90;;;;;;;;;;6236651;23;20209;-90
2022/02/15 03:13:27;;;;;;;27.87;12.63;;;;;;;;;;6237090;22;20213;-90
2022/02/15 03:16:32;;;;;;;33.83;13.63;;;;;;;;;;6236352;23;20166;-90
2022/02/15 03:19:38;;;;;;;29.53;12.13;;;;;;;;;;6238981;23;20162;-89
2022/02/15 03:22:43;;;;;;;25.87;11.07;;;;;;;;;;6238364;23;20487;-89
2022/02/15 03:25:50;;;;;;;25.07;11.63;;;;;;;;;;6237946;23;20179;-91
2022/02/15 03:28:59;;;;;;;25.83;11.07;;;;;;;;;;6238675;23;20168;-89
2022/02/15 03:32:06;;;;;;;26.23;10.97;;;;;;;;;;6240219;23;20178;-90
2022/02/15 03:35:10;;;;;;;27.37;11.53;;;;;;;;;;6240394;23;20177;-89
2022/02/15 03:38:18;;;;;;;22.50;10.10;;;;;;;;;;6241833;22;20174;-90
2022/02/15 03:45:11;;;;;;;23.93;10.60;;;;;;;;;;6241596;23;20587;-90
2022/02/15 03:48:35;;;;;;;24.87;10.33;;;;;;;;;;6242232;23;20182;-88
2022/02/15 03:51:40;;;;;;;21.90;9.27;;;;;;;;;;6241302;23;20189;-90
2022/02/15 03:54:45;;;;;;;20.07;9.30;;;;;;;;;;6242517;23;20517;-90
2022/02/15 03:57:54;;;;;;;20.07;9.53;;;;;;;;;;6242397;22;20170;-89
2022/02/15 04:01:00;;;;;;;22.50;10.17;;;;;;;;;;6240711;22;20170;-87
2022/02/15 04:04:07;;;;;;;23.47;9.87;;;;;;;;;;6242604;22;20158;-89
2022/02/15 04:07:13;;;;;;;25.60;9.37;;;;;;;;;;6241030;23;20167;-89
2022/02/15 04:10:19;;;;;;;23.90;10.67;;;;;;;;;;6240268;23;20170;-88
2022/02/15 04:13:26;;;;;;;24.70;9.83;;;;;;;;;;6239287;23;20190;-89
2022/02/15 04:16:31;;;;;;;30.73;10.27;;;;;;;;;;6238852;22;20181;-89
2022/02/15 04:19:36;;;;;;;23.70;9.83;;;;;;;;;;6242230;23;20608;-90
2022/02/15 04:22:43;;;;;;;21.30;9.57;;;;;;;;;;6240444;23;20247;-91
2022/02/15 04:25:51;;;;;;;23.83;10.20;;;;;;;;;;6240663;23;20150;-89
2022/02/15 04:29:17;;;;;;;26.17;10.33;;;;;;;;;;6242019;23;20175;-88
2022/02/15 04:32:33;;;;;;;23.40;10.60;;;;;;;;;;6241955;22;20261;-90
2022/02/15 04:35:39;;;;;;;27.23;11.13;;;;;;;;;;6241744;23;20186;-90
2022/02/15 04:38:44;;;;;;;31.00;11.37;;;;;;;;;;6239303;23;20170;-89
2022/02/15 04:41:49;;;;;;;27.67;11.50;;;;;;;;;;6239593;23;20194;-91
2022/02/15 04:45:01;;;;;;;27.17;11.23;;;;;;;;;;6239773;22;20205;-90
2022/02/15 04:48:28;;;;;;;23.67;11.03;;;;;;;;;;6240405;23;20166;-90
2022/02/15 04:51:34;;;;;;;25.30;11.47;;;;;;;;;;6223138;23;20167;-90
2022/02/15 04:54:39;;;;;;;25.27;11.60;;;;;;;;;;6239366;23;20218;-90
2022/02/15 04:57:45;;;;;;;24.67;11.33;;;;;;;;;;6239215;23;20193;-89
2022/02/15 05:00:59;;;;;;;28.57;11.53;;;;;;;;;;6239113;22;20151;-90
2022/02/15 05:07:45;;;;;;;24.80;10.97;;;;;;;;;;6239592;23;20166;-90
2022/02/15 05:10:51;;;;;;;23.07;9.97;;;;;;;;;;6239093;23;20162;-89
2022/02/15 05:13:56;;;;;;;25.67;11.13;;;;;;;;;;6240535;22;20221;-91
2022/02/15 05:17:09;;;;;;;26.70;10.00;;;;;;;;;;6241041;23;20494;-89
2022/02/15 05:20:17;;;;;;;24.17;10.47;;;;;;;;;;6241115;23;20235;-90
2022/02/15 05:23:22;;;;;;;23.30;10.07;;;;;;;;;;6241966;23;20159;-88
2022/02/15 05:26:28;;;;;;;22.33;10.17;;;;;;;;;;6238364;23;20167;-90
2022/02/15 05:29:37;;;;;;;24.60;10.20;;;;;;;;;;6239029;23;20167;-89
2022/02/15 05:33:00;;;;;;;26.77;10.47;;;;;;;;;;6240650;23;20530;-90
2022/02/15 05:36:05;;;;;;;24.57;10.77;;;;;;;;;;6239853;23;20178;-90
2022/02/15 05:39:16;;;;;;;24.67;10.37;;;;;;;;;;6242165;22;20146;-90
2022/02/15 05:42:32;;;;;;;20.63;9.90;;;;;;;;;;6242048;22;20772;-88
2022/02/15 05:45:38;;;;;;;31.20;10.50;;;;;;;;;;6240479;23;20166;-89
2022/02/15 05:48:50;;;;;;;26.37;11.67;;;;;;;;;;6243504;23;20166;-88
2022/02/15 05:52:15;;;;;;;26.17;11.47;;;;;;;;;;6258862;23;20167;-90
2022/02/15 05:55:20;;;;;;;28.30;11.90;;;;;;;;;;6241774;22;20210;-89
2022/02/15 05:58:25;;;;;;;30.10;12.13;;;;;;;;;;6240968;22;20661;-90
2022/02/15 06:01:31;;;;;;;28.40;11.30;;;;;;;;;;6239883;23;20174;-90
2022/02/15 06:04:38;;;;;;;23.93;10.90;;;;;;;;;;6241466;22;20182;-90
2022/02/15 06:07:59;;;;;;;30.23;11.63;;;;;;;;;;6240343;23;20253;-91
2022/02/15 06:11:07;;;;;;;27.23;12.00;;;;;;;;;;6242162;23;20242;-91
2022/02/15 06:14:20;;;;;;;29.30;12.10;;;;;;;;;;6242315;22;20217;-90
2022/02/15 06:17:26;;;;;;;29.67;11.50;;;;;;;;;;6242073;23;20178;-90
2022/02/15 06:20:34;;;;;;;26.77;12.50;;;;;;;;;;6242128;23;20201;-90
2022/02/15 06:23:41;;;;;;;22.30;11.07;;;;;;;;;;6241433;23;20182;-89
2022/02/15 06:26:48;;;;;;;30.57;12.67;;;;;;;;;;6237937;23;20193;-90
2022/02/15 06:30:16;;;;;;;24.43;11.43;;;;;;;;;;6259715;22;20233;-90
2022/02/15 06:33:29;;;;;;;28.10;11.43;;;;;;;;;;6243405;23;20197;-91
2022/02/15 06:36:35;;;;;;;25.87;11.27;;;;;;;;;;6244085;23;20174;-90
2022/02/15 06:39:41;;;;;;;24.60;11.37;;;;;;;;;;6243441;23;20174;-90
2022/02/15 06:42:48;;;;;;;26.93;11.20;;;;;;;;;;6244119;23;20174;-90
2022/02/15 06:45:56;;;;;;;30.67;12.03;;;;;;;;;;6241992;23;20171;-89
2022/02/15 06:49:05;;;;;;;27.53;11.90;;;;;;;;;;6243123;23;20170;-89
2022/02/15 06:52:12;;;;;;;23.93;11.13;;;;;;;;;;6239010;23;20166;-90
2022/02/15 06:55:18;;;;;;;25.53;11.33;;;;;;;;;;6241177;23;20809;-90
2022/02/15 06:58:28;;;;;;;25.00;11.93;;;;;;;;;;6240790;23;20150;-90
2022/02/15 07:01:34;;;;;;;24.73;12.50;;;;;;;;;;6241624;23;20259;-90
2022/02/15 07:04:43;;;;;;;23.67;11.07;;;;;;;;;;6243483;22;20155;-91
2022/02/15 07:07:50;;;;;;;32.37;12.63;;;;;;;;;;6241012;22;20166;-90
2022/02/15 07:11:00;;;;;;;29.30;11.80;;;;;;;;;;6243590;23;20190;-90
2022/02/15 07:14:09;;;;;;;32.83;12.33;;;;;;;;;;6240495;23;20270;-90
2022/02/15 07:17:14;;;;;;;26.63;12.00;;;;;;;;;;6239905;23;20162;-91
2022/02/15 07:20:19;;;;;;;26.70;12.47;;;;;;;;;;6238772;22;20221;-90
2022/02/15 07:23:38;;;;;;;27.50;13.00;;;;;;;;;;6259878;23;20599;-90
2022/02/15 07:27:15;;;;;;;34.23;12.60;;;;;;;;;;6249268;23;20178;-91
2022/02/15 07:30:26;;;;;;;30.13;13.20;;;;;;;;;;6244529;22;20155;-89
2022/02/15 07:33:37;;;;;;;27.50;12.83;;;;;;;;;;6242996;23;20273;-91
2022/02/15 07:36:44;;;;;;;26.77;12.67;;;;;;;;;;6242451;23;20173;-90
2022/02/15 07:39:50;;;;;;;27.30;12.57;;;;;;;;;;6243612;23;20174;-89
2022/02/15 07:42:56;;;;;;;27.10;12.07;;;;;;;;;;6241466;23;20162;-89
2022/02/15 07:46:19;;;;;;;24.77;12.13;;;;;;;;;;6242469;22;20622;-90
2022/02/15 07:49:24;;;;;;;27.10;11.83;;;;;;;;;;6243179;23;20162;-89
2022/02/15 07:52:29;;;;;;;32.17;15.90;;;;;;;;;;6243763;23;20167;-89
2022/02/15 07:55:36;;;;;;;32.47;14.83;;;;;;;;;;6241291;23;20187;-88
2022/02/15 07:58:41;;;;;;;35.00;15.33;;;;;;;;;;6243118;23;20298;-90
2022/02/15 08:01:46;;;;;;;30.90;13.43;;;;;;;;;;6243037;22;20170;-90
2022/02/15 08:04:51;;;;;;;30.03;13.70;;;;;;;;;;6243554;22;20157;-89
2022/02/15 08:07:57;;;;;;;34.83;14.03;;;;;;;;;;6241126;23;20718;-89
2022/02/15 08:11:03;;;;;;;31.50;13.93;;;;;;;;;;6244177;23;20238;-90
2022/02/15 08:14:09;;;;;;;33.07;13.70;;;;;;;;;;6241351;23;20198;-89
2022/02/15 08:17:14;;;;;;;32.53;13.47;;;;;;;;;;6240957;23;20426;-91
2022/02/15 08:20:19;;;;;;;28.40;13.50;;;;;;;;;;6242252;22;20610;-90
2022/02/15 08:23:24;;;;;;;30.03;13.93;;;;;;;;;;6240722;22;20200;-90
2022/02/15 08:26:31;;;;;;;37.77;14.97;;;;;;;;;;6241442;23;20209;-90
2022/02/15 08:29:37;;;;;;;32.17;13.80;;;;;;;;;;6241957;23;20243;-91
2022/02/15 08:32:42;;;;;;;33.33;15.40;;;;;;;;;;6243689;23;20206;-90
2022/02/15 08:35:47;;;;;;;36.73;15.83;;;;;;;;;;6242820;22;20258;-90
2022/02/15 08:38:52;;;;;;;35.83;15.57;;;;;;;;;;6243593;23;20169;-90
2022/02/15 08:42:04;;;;;;;32.80;15.83;;;;;;;;;;6239990;23;20183;-90
2022/02/15 08:45:10;;;;;;;33.93;15.43;;;;;;;;;;6243231;23;20278;-90
2022/02/15 08:48:15;;;;;;;31.63;14.20;;;;;;;;;;6243305;23;20167;-89
2022/02/15 08:51:21;;;;;;;31.63;14.53;;;;;;;;;;6243041;23;20209;-90
2022/02/15 08:54:26;;;;;;;32.57;15.43;;;;;;;;;;6241905;23;20170;-90
2022/02/15 08:57:32;;;;;;;34.83;15.10;;;;;;;;;;6241941;23;20166;-89
2022/02/15 09:00:38;;;;;;;33.87;16.13;;;;;;;;;;6247086;23;20175;-90
2022/02/15 09:03:44;;;;;;;40.67;16.77;;;;;;;;;;6250513;23;20237;-89
2022/02/15 09:10:10;;;;;;;36.73;17.00;;;;;;;;;;6245915;23;20161;-90
2022/02/15 09:13:17;;;;;;;34.67;15.80;;;;;;;;;;6243051;22;20170;-90
2022/02/15 09:16:22;;;;;;;37.17;16.53;;;;;;;;;;6241965;23;20225;-90
2022/02/15 09:19:32;;;;;;;35.30;17.10;;;;;;;;;;6241436;23;20170;-91
2022/02/15 09:22:38;;;;;;;37.43;17.83;;;;;;;;;;6240762;23;20167;-91
2022/02/15 09:29:07;;;;;;;37.20;18.00;;;;;;;;;;6251941;22;20232;-90
2022/02/15 09:32:12;;;;;;;44.67;19.83;;;;;;;;;;6242959;23;20170;-90
2022/02/15 09:35:17;;;;;;;38.87;18.50;;;;;;;;;;6243215;22;20222;-90
2022/02/15 09:38:22;;;;;;;46.30;20.23;;;;;;;;;;6243822;23;20174;-90
2022/02/15 09:41:33;;;;;;;41.97;20.07;;;;;;;;;;6243477;22;20166;-89
2022/02/15 09:44:40;;;;;;;43.20;19.63;;;;;;;;;;6241459;22;20175;-90
2022/02/15 09:47:46;;;;;;;40.83;20.07;;;;;;;;;;6242254;23;20186;-88
2022/02/15 09:50:52;;;;;;;39.90;19.80;;;;;;;;;;6242562;23;20296;-89
2022/02/15 09:53:58;;;;;;;43.37;21.57;;;;;;;;;;6242486;23;20213;-88
2022/02/15 09:57:03;;;;;;;42.03;20.33;;;;;;;;;;6240699;23;20623;-89
2022/02/15 10:00:11;;;;;;;45.80;20.30;;;;;;;;;;6242914;23;20182;-89
2022/02/15 10:03:19;;;;;;;41.83;20.27;;;;;;;;;;6262563;22;20247;-88
2022/02/15 10:06:29;;;;;;;42.83;21.03;;;;;;;;;;6259851;23;20170;-90
2022/02/15 10:09:34;;;;;;;47.83;21.13;;;;;;;;;;6242935;23;20187;-89
2022/02/15 10:12:40;;;;;;;43.30;20.57;;;;;;;;;;6240983;23;20193;-89
2022/02/15 10:15:48;;;;;;;42.77;20.57;;;;;;;;;;6241377;23;20170;-90
2022/02/15 10:18:57;;;;;;;47.10;21.27;;;;;;;;;;6241702;23;20182;-89
2022/02/15 10:22:04;;;;;;;53.30;23.23;;;;;;;;;;6243806;23;20174;-90
2022/02/15 10:25:09;;;;;;;43.40;21.37;;;;;;;;;;6243973;23;20229;-90
2022/02/15 10:28:19;;;;;;;50.57;21.90;;;;;;;;;;6246750;23;20174;-89
2022/02/15 10:31:26;;;;;;;45.53;20.53;;;;;;;;;;6241771;23;20167;-91
2022/02/15 10:34:31;;;;;;;49.03;23.67;;;;;;;;;;6238836;23;20194;-90
2022/02/15 10:37:37;;;;;;;45.97;23.70;;;;;;;;;;6238747;23;20171;-90
2022/02/15 10:40:42;;;;;;;48.60;22.73;;;;;;;;;;6238833;23;20171;-90
2022/02/15 10:43:48;;;;;;;42.97;21.53;;;;;;;;;;6240599;23;20245;-90
2022/02/15 10:46:57;;;;;;;44.80;21.20;;;;;;;;;;6237929;23;20261;-89
2022/02/15 10:50:03;;;;;;;42.57;21.70;;;;;;;;;;6240461;23;20235;-89
2022/02/15 10:53:08;;;;;;;37.27;19.77;;;;;;;;;;6241183;23;20174;-89
2022/02/15 10:56:13;;;;;;;47.80;21.97;;;;;;;;;;6239620;23;20518;-90
2022/02/15 10:59:20;;;;;;;43.10;21.37;;;;;;;;;;6240690;23;20167;-91
2022/02/15 11:02:27;;;;;;;39.97;21.57;;;;;;;;;;6237530;23;20170;-91
2022/02/15 11:05:33;;;;;;;38.43;19.27;;;;;;;;;;6238759;22;20167;-90
2022/02/15 11:08:39;;;;;;;41.00;20.17;;;;;;;;;;6238606;23;20213;-90
2022/02/15 11:11:52;;;;;;;39.77;20.37;;;;;;;;;;6239996;22;20185;-91
2022/02/15 11:15:02;;;;;;;43.23;20.33;;;;;;;;;;6240677;23;20217;-89
2022/02/15 11:18:10;;;;;;;45.57;20.63;;;;;;;;;;6240970;23;20183;-91
2022/02/15 11:21:22;;;;;;;40.00;20.43;;;;;;;;;;6241282;23;20179;-89
2022/02/15 11:24:39;;;;;;;45.73;21.37;;;;;;;;;;6237899;23;20801;-90
2022/02/15 11:27:51;;;;;;;43.33;21.60;;;;;;;;;;6240975;22;20170;-89
2022/02/15 11:30:57;;;;;;;42.80;21.30;;;;;;;;;;6239555;23;20186;-88
2022/02/15 11:34:04;;;;;;;45.33;20.93;;;;;;;;;;6243016;23;20199;-88
2022/02/15 11:37:17;;;;;;;43.17;21.90;;;;;;;;;;6240397;23;20178;-90
2022/02/15 11:40:22;;;;;;;44.70;21.67;;;;;;;;;;6240642;23;20186;-89
2022/02/15 11:43:28;;;;;;;43.50;22.30;;;;;;;;;;6241456;23;20174;-89
2022/02/15 11:46:35;;;;;;;46.73;21.90;;;;;;;;;;6239689;23;20249;-88
2022/02/15 11:49:51;;;;;;;44.53;21.53;;;;;;;;;;6245266;22;20606;-89
2022/02/15 11:52:57;;;;;;;42.03;22.43;;;;;;;;;;6240680;23;20166;-92
2022/02/15 11:56:02;;;;;;;48.13;22.27;;;;;;;;;;6241042;22;20189;-90
2022/02/15 11:59:15;;;;;;;46.33;21.33;;;;;;;;;;6241241;23;20182;-90
2022/02/15 12:02:20;;;;;;;46.67;21.73;;;;;;;;;;6241324;23;20196;-88
2022/02/15 12:05:28;;;;;;;45.83;23.10;;;;;;;;;;6242672;23;20166;-88
2022/02/15 12:08:34;;;;;;;43.77;21.07;;;;;;;;;;6243141;23;20163;-91
2022/02/15 12:11:40;;;;;;;44.40;21.50;;;;;;;;;;6241100;22;20190;-90
2022/02/15 12:14:45;;;;;;;43.50;20.77;;;;;;;;;;6239442;22;20206;-90
2022/02/15 12:17:51;;;;;;;47.63;21.97;;;;;;;;;;6241377;23;20169;-90
2022/02/15 12:20:58;;;;;;;47.33;22.87;;;;;;;;;;6242031;23;20161;-88
2022/02/15 12:24:06;;;;;;;46.60;21.73;;;;;;;;;;6240551;23;20185;-88
2022/02/15 12:27:21;;;;;;;51.27;22.53;;;;;;;;;;6242525;23;20266;-88
2022/02/15 12:30:27;;;;;;;43.60;22.17;;;;;;;;;;6240939;23;20162;-90
2022/02/15 12:33:37;;;;;;;45.63;22.30;;;;;;;;;;6243131;23;20170;-88
2022/02/15 12:36:43;;;;;;;41.83;21.13;;;;;;;;;;6241277;22;20186;-88
2022/02/15 12:39:48;;;;;;;45.47;22.33;;;;;;;;;;6241959;22;20170;-89
2022/02/15 12:42:54;;;;;;;53.67;22.50;;;;;;;;;;6246893;23;20150;-88
2022/02/15 12:46:03;;;;;;;43.73;22.37;;;;;;;;;;6247190;23;20174;-89
2022/02/15 12:49:09;;;;;;;45.87;23.57;;;;;;;;;;6244459;22;20158;-89
2022/02/15 12:52:16;;;;;;;42.30;21.97;;;;;;;;;;6243585;22;20167;-89
2022/02/15 12:55:24;;;;;;;50.73;23.63;;;;;;;;;;6242395;22;20202;-89
2022/02/15 12:58:30;;;;;;;48.77;23.80;;;;;;;;;;6241620;23;20147;-91
2022/02/15 13:01:38;;;;;;;47.97;22.47;;;;;;;;;;6249235;23;20171;-87
2022/02/15 13:04:49;;;;;;;49.13;23.50;;;;;;;;;;6240709;23;20170;-90
2022/02/15 13:07:58;;;;;;;48.30;23.63;;;;;;;;;;6244425;22;20150;-91
2022/02/15 13:11:04;;;;;;;49.57;22.87;;;;;;;;;;6240749;22;20186;-89
2022/02/15 13:14:11;;;;;;;48.20;23.13;;;;;;;;;;6249416;22;20170;-89
2022/02/15 13:17:20;;;;;;;48.87;22.50;;;;;;;;;;6241806;23;20249;-89
2022/02/15 13:20:26;;;;;;;54.53;23.97;;;;;;;;;;6242145;23;20170;-89
2022/02/15 13:23:34;;;;;;;48.30;23.67;;;;;;;;;;6243399;23;20217;-90
2022/02/15 13:26:40;;;;;;;52.87;21.90;;;;;;;;;;6241415;23;20190;-90
2022/02/15 13:29:58;;;;;;;48.37;22.53;;;;;;;;;;6260696;23;20158;-90
2022/02/15 13:33:05;;;;;;;48.73;22.90;;;;;;;;;;6240959;22;20186;-88
2022/02/15 13:36:12;;;;;;;43.10;22.03;;;;;;;;;;6239335;23;20194;-89
2022/02/15 13:39:18;;;;;;;44.33;21.83;;;;;;;;;;6240861;22;20166;-90
2022/02/15 13:42:24;;;;;;;50.00;24.13;;;;;;;;;;6240436;23;20154;-89
2022/02/15 13:45:29;;;;;;;50.27;24.40;;;;;;;;;;6240049;23;20185;-90
2022/02/15 13:48:34;;;;;;;59.70;24.53;;;;;;;;;;6243380;22;20214;-89
2022/02/15 13:51:39;;;;;;;54.90;24.40;;;;;;;;;;6246288;22;20159;-88
2022/02/15 13:54:48;;;;;;;52.23;25.40;;;;;;;;;;6246364;23;20272;-89
2022/02/15 13:57:54;;;;;;;46.53;23.53;;;;;;;;;;6242330;22;20193;-91
2022/02/15 14:01:02;;;;;;;49.47;24.50;;;;;;;;;;6242944;23;20216;-90
2022/02/15 14:04:08;;;;;;;55.07;24.87;;;;;;;;;;6242179;22;20614;-90
2022/02/15 14:07:13;;;;;;;51.43;24.27;;;;;;;;;;6238643;23;20634;-90
2022/02/15 14:10:20;;;;;;;52.53;26.20;;;;;;;;;;6240508;23;20178;-90
2022/02/15 14:13:26;;;;;;;49.13;24.13;;;;;;;;;;6241551;23;20494;-90
2022/02/15 14:19:59;;;;;;;58.37;27.50;;;;;;;;;;6241708;23;20217;-90
2022/02/15 14:23:04;;;;;;;57.07;26.07;;;;;;;;;;6241190;23;20170;-90
2022/02/15 14:26:10;;;;;;;64.50;28.60;;;;;;;;;;6241274;23;20218;-90
2022/02/15 14:29:16;;;;;;;48.87;25.80;;;;;;;;;;6238165;23;20175;-88
2022/02/15 14:32:21;;;;;;;49.00;25.23;;;;;;;;;;6239076;23;20174;-88
2022/02/15 14:35:26;;;;;;;50.07;23.97;;;;;;;;;;6238758;23;20202;-90
2022/02/15 14:38:31;;;;;;;52.73;25.10;;;;;;;;;;6240097;23;20170;-89
2022/02/15 14:41:38;;;;;;;54.10;25.20;;;;;;;;;;6237869;23;20166;-90
2022/02/15 14:44:43;;;;;;;49.03;25.47;;;;;;;;;;6237754;23;20174;-90
2022/02/15 14:47:48;;;;;;;47.60;23.43;;;;;;;;;;6239080;23;20166;-91
2022/02/15 14:50:55;;;;;;;49.47;23.93;;;;;;;;;;6239013;23;20171;-89
2022/02/15 14:54:00;;;;;;;55.23;26.13;;;;;;;;;;6258657;23;20170;-88
2022/02/15 14:57:08;;;;;;;55.97;25.07;;;;;;;;;;6239670;23;20167;-88
2022/02/15 15:00:14;;;;;;;55.07;26.53;;;;;;;;;;6239467;23;20244;-88
2022/02/15 15:03:22;;;;;;;50.27;25.27;;;;;;;;;;6239855;23;20174;-90
2022/02/15 15:06:28;;;;;;;48.90;24.10;;;;;;;;;;6239600;23;20170;-89
2022/02/15 15:09:34;;;;;;;47.63;25.10;;;;;;;;;;6239449;23;20219;-89
2022/02/15 15:12:41;;;;;;;52.20;26.10;;;;;;;;;;6238100;23;20264;-88
2022/02/15 15:15:47;;;;;;;54.07;27.07;;;;;;;;;;6241169;23;20548;-87
2022/02/15 15:18:53;;;;;;;50.23;25.77;;;;;;;;;;6238075;23;20182;-88
2022/02/15 15:21:59;;;;;;;52.17;27.07;;;;;;;;;;6236611;23;20162;-89
2022/02/15 15:25:06;;;;;;;50.17;24.80;;;;;;;;;;6242078;23;20174;-87
2022/02/15 15:28:13;;;;;;;51.93;24.80;;;;;;;;;;6239966;23;20178;-88
2022/02/15 15:31:18;;;;;;;50.00;25.30;;;;;;;;;;6241750;23;20177;-89
2022/02/15 15:34:23;;;;;;;51.80;24.90;;;;;;;;;;6240754;23;20311;-89
2022/02/15 15:37:32;;;;;;;50.07;25.67;;;;;;;;;;6243624;23;20182;-90
2022/02/15 15:40:38;;;;;;;49.07;24.90;;;;;;;;;;6242200;23;20189;-90
2022/02/15 15:43:46;;;;;;;56.90;26.30;;;;;;;;;;6242372;23;20209;-90
2022/02/15 15:46:52;;;;;;;51.13;26.10;;;;;;;;;;6223307;23;20232;-90
2022/02/15 15:49:58;;;;;;;50.50;25.80;;;;;;;;;;6241748;23;20193;-90
2022/02/15 15:53:04;;;;;;;92.73;39.07;;;;;;;;;;6239837;23;20178;-90
2022/02/15 15:56:09;;;;;;;60.00;31.00;;;;;;;;;;6239417;23;20195;-90
2022/02/15 15:59:18;;;;;;;56.37;26.47;;;;;;;;;;6258321;23;20485;-90
2022/02/15 16:02:23;;;;;;;50.77;24.93;;;;;;;;;;6242947;23;20239;-89
2022/02/15 16:05:31;;;;;;;51.67;24.23;;;;;;;;;;6242115;23;20617;-89
2022/02/15 16:08:37;;;;;;;57.90;27.53;;;;;;;;;;6244740;23;20174;-90
2022/02/15 16:11:44;;;;;;;55.27;26.30;;;;;;;;;;6241886;23;20193;-90
2022/02/15 16:14:56;;;;;;;52.10;26.47;;;;;;;;;;6239266;23;20626;-90
2022/02/15 16:18:02;;;;;;;54.87;26.93;;;;;;;;;;6240986;23;20310;-89
2022/02/15 16:21:07;;;;;;;50.90;27.00;;;;;;;;;;6240380;23;20171;-89
2022/02/15 16:24:12;;;;;;;58.50;27.43;;;;;;;;;;6241415;23;20171;-90
2022/02/15 16:27:17;;;;;;;66.97;30.50;;;;;;;;;;6240974;23;20209;-90
2022/02/15 16:30:24;;;;;;;67.90;32.13;;;;;;;;;;6240272;23;20233;-90
2022/02/15 16:33:29;;;;;;;72.10;30.57;;;;;;;;;;6239404;23;20170;-90
2022/02/15 16:36:34;;;;;;;69.53;32.90;;;;;;;;;;6239178;23;20213;-90
2022/02/15 16:39:39;;;;;;;68.40;29.93;;;;;;;;;;6240214;23;20262;-91
2022/02/15 16:42:44;;;;;;;60.17;28.53;;;;;;;;;;6240727;23;20171;-90
2022/02/15 16:45:51;;;;;;;64.07;29.60;;;;;;;;;;6241327;23;20162;-90
2022/02/15 16:48:56;;;;;;;70.53;33.60;;;;;;;;;;6242773;23;20162;-91
2022/02/15 16:52:01;;;;;;;63.67;30.40;;;;;;;;;;6242436;23;20166;-90
2022/02/15 16:55:07;;;;;;;54.50;28.17;;;;;;;;;;6241602;23;20672;-90
2022/02/15 16:58:15;;;;;;;64.30;27.87;;;;;;;;;;6244291;23;20170;-90
2022/02/15 17:01:23;;;;;;;66.57;30.90;;;;;;;;;;6241432;23;20454;-89
2022/02/15 17:04:28;;;;;;;58.37;29.23;;;;;;;;;;6242453;23;20190;-89
2022/02/15 17:07:33;;;;;;;63.90;28.80;;;;;;;;;;6240857;23;20183;-89
2022/02/15 17:10:39;;;;;;;64.60;29.47;;;;;;;;;;6242014;23;20171;-90
2022/02/15 17:13:44;;;;;;;60.57;27.37;;;;;;;;;;6241412;23;20171;-89
2022/02/15 17:17:06;;;;;;;59.83;28.63;;;;;;;;;;6239975;23;20239;-89
2022/02/15 17:20:13;;;;;;;64.00;30.57;;;;;;;;;;6239625;23;20290;-91
2022/02/15 17:23:18;;;;;;;59.40;29.00;;;;;;;;;;6241441;23;20174;-89
2022/02/15 17:26:23;;;;;;;62.20;29.10;;;;;;;;;;6240892;23;20172;-91
2022/02/15 17:29:32;;;;;;;61.87;28.07;;;;;;;;;;6240781;23;20170;-89
2022/02/15 17:32:39;;;;;;;58.43;28.60;;;;;;;;;;6241602;23;20174;-89
2022/02/15 17:35:46;;;;;;;65.57;31.83;;;;;;;;;;6239874;23;20190;-90
2022/02/15 17:38:50;;;;;;;67.10;32.27;;;;;;;;;;6238553;23;20171;-89
2022/02/15 17:41:56;;;;;;;75.10;34.73;;;;;;;;;;6240429;22;20227;-91
2022/02/15 17:45:01;;;;;;;75.43;36.40;;;;;;;;;;6239490;23;20278;-89
2022/02/15 17:48:08;;;;;;;76.77;34.40;;;;;;;;;;6222972;23;20162;-90
2022/02/15 17:51:13;;;;;;;73.97;35.53;;;;;;;;;;6241918;23;20174;-90
2022/02/15 17:54:17;;;;;;;74.03;35.83;;;;;;;;;;6240838;23;20167;-89
2022/02/15 17:57:24;;;;;;;72.67;35.33;;;;;;;;;;6240684;23;20210;-90
2022/02/15 18:00:29;;;;;;;78.90;37.87;;;;;;;;;;6239675;23;20170;-90
2022/02/15 18:03:35;;;;;;;82.63;35.83;;;;;;;;;;6239858;23;20280;-91
2022/02/15 18:06:40;;;;;;;83.00;38.73;;;;;;;;;;6239957;23;20181;-91
2022/02/15 18:09:46;;;;;;;76.17;34.77;;;;;;;;;;6241328;23;20167;-89
2022/02/15 18:12:51;;;;;;;69.97;34.47;;;;;;;;;;6243111;23;20197;-89
2022/02/15 18:16:26;;;;;;;78.47;34.10;;;;;;;;;;6239850;23;20194;-90
